Time;durP1;ratioP1;P1;durP2;ratioP2;P2;SDS_P1;SDS_P2;PMS_P1;PMS_P2;Temp;Humidity;BMP_temperature;BMP_pressure;BME280_temperature;BME280_humidity;BME280_pressure;Samples;Min_cycle;Max_cycle;Signal;HPM_P1;HPM_P2
2023/09/20 00:00:11;;;;;;;6.38;2.58;;;;;;;17.70;58.70;100035.22;5038929;27;101267;-75
2023/09/20 00:02:39;;;;;;;6.93;3.13;;;;;;;17.48;58.81;100009.28;5031842;27;97947;-76
2023/09/20 00:05:12;;;;;;;7.40;3.15;;;;;;;17.56;58.25;100041.47;5029099;27;97401;-75
2023/09/20 00:07:39;;;;;;;4.10;2.20;;;;;;;17.50;58.48;100027.78;5052247;27;101364;-76
2023/09/20 00:10:11;;;;;;;4.47;2.58;;;;;;;17.48;58.81;100029.66;5038576;27;97585;-75
2023/09/20 00:12:36;;;;;;;8.77;2.60;;;;;;;17.50;58.10;100033.09;5051955;27;96860;-76
2023/09/20 00:15:02;;;;;;;6.63;2.75;;;;;;;17.47;58.00;100043.91;5048973;27;97218;-76
2023/09/20 00:17:28;;;;;;;5.97;2.78;;;;;;;17.50;58.29;100041.03;5054734;27;101439;-76
2023/09/20 00:19:54;;;;;;;5.72;2.47;;;;;;;17.49;57.93;100045.50;5050195;27;97958;-76
2023/09/20 00:22:20;;;;;;;5.45;3.20;;;;;;;17.49;58.02;100037.53;5051762;27;97263;-75
2023/09/20 00:24:46;;;;;;;10.88;2.42;;;;;;;17.50;57.61;100041.03;5048765;27;96819;-77
2023/09/20 00:27:11;;;;;;;4.63;2.70;;;;;;;17.44;57.53;100042.31;5054272;27;98021;-76
2023/09/20 00:29:37;;;;;;;4.93;2.10;;;;;;;17.43;57.69;100048.56;5036797;27;101269;-78
2023/09/20 00:32:03;;;;;;;4.75;2.70;;;;;;;17.43;57.57;100044.09;5037435;27;97364;-75
2023/09/20 00:34:29;;;;;;;4.32;2.40;;;;;;;17.39;57.35;100039.97;5035688;27;96900;-76
2023/09/20 00:36:55;;;;;;;5.93;2.90;;;;;;;17.43;57.36;100041.47;5049000;27;101737;-76
2023/09/20 00:39:20;;;;;;;10.10;2.72;;;;;;;17.40;57.51;100039.00;5052055;27;101185;-81
2023/09/20 00:41:48;;;;;;;4.82;2.90;;;;;;;17.46;57.24;100048.38;5054366;27;96735;-76
2023/09/20 00:44:14;;;;;;;8.40;2.45;;;;;;;17.33;57.75;100032.41;5054994;27;97416;-76
2023/09/20 00:46:39;;;;;;;6.93;2.63;;;;;;;17.47;57.88;100050.06;5037942;27;101461;-78
2023/09/20 00:49:06;;;;;;;4.80;2.35;;;;;;;17.45;57.53;100048.44;5041921;27;98107;-75
2023/09/20 00:51:33;;;;;;;4.88;2.22;;;;;;;17.42;57.28;100050.38;5044833;27;97479;-76
2023/09/20 00:54:03;;;;;;;5.10;2.35;;;;;;;17.45;56.87;100043.16;5052548;27;96924;-76
2023/09/20 00:56:29;;;;;;;5.70;2.80;;;;;;;17.34;56.83;100052.69;5053275;27;102074;-78
2023/09/20 00:58:56;;;;;;;12.10;4.40;;;;;;;16.96;57.89;100058.69;5020293;27;101361;-75
2023/09/20 01:01:26;;;;;;;18.42;4.72;;;;;;;16.92;58.11;100056.34;5019940;28;97191;-82
2023/09/20 01:03:52;;;;;;;11.18;3.53;;;;;;;16.79;58.70;100061.59;5043707;27;96842;-75
2023/09/20 01:06:19;;;;;;;6.68;3.10;;;;;;;16.50;59.41;100035.09;5053827;27;97346;-78
2023/09/20 01:08:48;;;;;;;6.15;3.10;;;;;;;16.53;59.29;100047.31;5054767;27;97393;-75
2023/09/20 01:11:15;;;;;;;11.13;2.83;;;;;;;16.40;59.50;100057.81;5021231;28;97120;-80
2023/09/20 01:13:41;;;;;;;8.00;3.00;;;;;;;16.38;59.45;100043.81;5051788;27;96870;-79
2023/09/20 01:16:09;;;;;;;5.07;2.78;;;;;;;16.46;59.15;100035.38;5037200;27;97456;-76
2023/09/20 01:18:34;;;;;;;9.07;2.55;;;;;;;16.69;59.32;100057.78;5055268;27;97978;-75
2023/09/20 01:21:00;;;;;;;10.68;3.03;;;;;;;16.63;59.30;100031.66;5052079;27;97319;-75
2023/09/20 01:23:27;;;;;;;5.90;3.33;;;;;;;16.67;58.86;100059.69;5054829;27;96895;-75
2023/09/20 01:25:55;;;;;;;4.80;2.60;;;;;;;16.66;58.92;100058.81;5029165;27;102745;-75
2023/09/20 01:28:24;;;;;;;5.95;2.33;;;;;;;16.71;59.27;100046.13;5047228;27;98690;-77
2023/09/20 01:30:50;;;;;;;4.55;2.55;;;;;;;16.75;58.94;100052.06;5014216;27;97183;-76
2023/09/20 01:33:16;;;;;;;10.35;2.55;;;;;;;16.82;58.94;100050.78;5035696;27;97510;-75
2023/09/20 01:35:45;;;;;;;6.68;3.13;;;;;;;16.67;58.47;100036.69;5053208;27;98011;-76
2023/09/20 01:38:11;;;;;;;10.38;2.78;;;;;;;16.71;58.39;100032.03;5048808;27;97949;-75
2023/09/20 01:40:39;;;;;;;7.57;2.40;;;;;;;16.84;58.31;100053.31;5052278;27;97225;-77
2023/09/20 01:43:08;;;;;;;8.30;3.15;;;;;;;16.74;58.45;100035.31;5036538;27;97283;-76
2023/09/20 01:45:35;;;;;;;5.43;2.63;;;;;;;16.67;57.93;100031.38;5027996;27;101419;-76
2023/09/20 01:48:08;;;;;;;2.70;1.98;;;;;;;16.71;57.81;100046.13;5043948;27;98065;-76
2023/09/20 01:50:34;;;;;;;5.30;2.95;;;;;;;16.57;57.95;100055.91;5052614;27;97451;-76
2023/09/20 01:53:01;;;;;;;5.85;2.42;;;;;;;16.44;57.77;100039.94;5026223;27;96820;-75
2023/09/20 01:55:28;;;;;;;6.10;2.10;;;;;;;16.44;57.86;100053.19;5035510;27;101671;-81
2023/09/20 01:57:55;;;;;;;6.18;2.42;;;;;;;16.50;58.06;100051.00;5030785;27;101393;-79
2023/09/20 02:00:33;;;;;;;5.72;2.35;;;;;;;16.55;57.94;100049.84;5053829;27;97608;-79
2023/09/20 02:03:00;;;;;;;2.72;1.80;;;;;;;16.45;58.05;100049.56;5035426;27;96789;-75
2023/09/20 02:05:27;;;;;;;4.55;2.30;;;;;;;16.27;58.26;100046.28;5051036;27;98018;-80
2023/09/20 02:07:54;;;;;;;6.18;2.30;;;;;;;16.01;58.84;100034.66;5049874;27;97642;-78
2023/09/20 02:10:21;;;;;;;4.68;1.90;;;;;;;16.26;58.34;100052.50;5046634;27;96879;-75
2023/09/20 02:12:51;;;;;;;5.97;2.10;;;;;;;16.36;58.17;100052.81;5050084;27;96846;-78
2023/09/20 02:15:17;;;;;;;6.05;2.60;;;;;;;16.35;57.79;100054.59;5044230;27;98067;-77
2023/09/20 02:17:44;;;;;;;4.70;2.20;;;;;;;16.28;57.77;100048.81;5032391;27;101171;-78
2023/09/20 02:20:11;;;;;;;6.20;2.00;;;;;;;16.33;57.80;100053.84;5033138;27;96892;-76
2023/09/20 02:22:40;;;;;;;10.70;2.90;;;;;;;16.42;57.89;100052.41;5053957;27;96865;-78
2023/09/20 02:25:12;;;;;;;3.80;2.10;;;;;;;16.37;57.61;100047.41;5016685;27;101545;-75
2023/09/20 02:27:44;;;;;;;3.65;1.98;;;;;;;16.44;57.36;100050.53;5028811;27;101206;-75
2023/09/20 02:30:14;;;;;;;8.10;2.35;;;;;;;16.51;57.28;100044.75;5053718;27;97396;-75
2023/09/20 02:32:41;;;;;;;5.50;1.85;;;;;;;16.52;57.38;100048.22;5034992;27;96828;-75
2023/09/20 02:35:09;;;;;;;4.55;2.40;;;;;;;16.48;57.18;100036.97;5036928;27;101402;-75
2023/09/20 02:37:35;;;;;;;5.85;1.77;;;;;;;16.43;57.24;100062.91;5054639;27;97557;-76
2023/09/20 02:40:07;;;;;;;4.78;2.15;;;;;;;16.32;57.19;100060.09;5055098;27;96810;-75
2023/09/20 02:42:46;;;;;;;9.00;2.28;;;;;;;16.07;57.92;100063.38;5037492;27;97930;-75
2023/09/20 02:45:12;;;;;;;4.43;2.15;;;;;;;15.94;58.30;100041.25;5034641;27;101926;-78
2023/09/20 02:47:40;;;;;;;4.57;1.85;;;;;;;15.91;58.72;100052.91;5055643;27;101346;-75
2023/09/20 02:50:11;;;;;;;7.38;2.55;;;;;;;15.86;59.06;100054.97;5058745;27;97150;-75
2023/09/20 02:52:39;;;;;;;6.18;2.40;;;;;;;15.74;58.97;100053.91;5037913;27;97299;-76
2023/09/20 02:55:08;;;;;;;7.32;2.20;;;;;;;15.68;59.31;100059.56;5056235;27;101979;-75
2023/09/20 02:57:37;;;;;;;5.00;2.00;;;;;;;15.57;59.48;100054.84;5047360;27;98138;-75
2023/09/20 03:00:14;;;;;;;5.25;1.95;;;;;;;15.56;59.69;100049.66;5051776;27;97739;-75
2023/09/20 03:02:45;;;;;;;4.93;2.05;;;;;;;15.73;59.05;100048.69;5041769;27;96924;-75
2023/09/20 03:05:13;;;;;;;5.30;2.33;;;;;;;15.68;59.17;100051.63;5039522;27;100530;-75
2023/09/20 03:07:39;;;;;;;3.70;2.20;;;;;;;15.71;59.09;100055.88;5050669;27;97953;-75
2023/09/20 03:10:05;;;;;;;9.35;2.30;;;;;;;15.72;58.95;100053.13;5035968;27;96808;-75
2023/09/20 03:12:33;;;;;;;6.20;1.75;;;;;;;15.85;58.82;100047.94;5017473;27;97313;-75
2023/09/20 03:15:04;;;;;;;3.95;2.30;;;;;;;15.72;58.83;100023.19;5038784;27;101447;-75
2023/09/20 03:17:31;;;;;;;7.18;2.20;;;;;;;15.76;58.93;100051.16;5040123;27;100442;-75
2023/09/20 03:19:57;;;;;;;6.07;2.33;;;;;;;15.60;58.96;100020.28;5038632;27;96851;-76
2023/09/20 03:22:23;;;;;;;11.20;2.28;;;;;;;15.73;58.85;100033.66;5052779;27;97132;-76
2023/09/20 03:24:48;;;;;;;5.13;2.33;;;;;;;15.76;58.77;100036.13;5016368;28;102730;-76
2023/09/20 03:27:17;;;;;;;5.47;2.38;;;;;;;15.84;58.89;100039.16;5032499;27;101438;-75
2023/09/20 03:29:46;;;;;;;3.50;2.08;;;;;;;15.92;58.68;100049.28;5039724;27;97201;-75
2023/09/20 03:32:15;;;;;;;2.85;2.05;;;;;;;15.88;58.82;100049.56;5037347;27;97361;-80
2023/09/20 03:34:41;;;;;;;4.10;2.20;;;;;;;15.87;58.85;100048.72;5040094;27;98926;-77
2023/09/20 03:37:09;;;;;;;3.65;1.85;;;;;;;15.87;58.73;100048.72;5032767;27;101261;-76
2023/09/20 03:39:40;;;;;;;9.35;2.30;;;;;;;15.80;58.69;100032.34;5023176;27;96805;-75
2023/09/20 03:42:07;;;;;;;5.40;2.13;;;;;;;15.59;59.38;100050.34;5048430;27;97024;-75
2023/09/20 03:44:33;;;;;;;4.85;2.13;;;;;;;15.67;59.37;100047.22;5013024;27;101946;-75
2023/09/20 03:46:59;;;;;;;5.45;2.38;;;;;;;15.65;59.22;100048.25;5036406;27;100879;-75
2023/09/20 03:49:25;;;;;;;6.63;1.95;;;;;;;15.52;59.36;100029.63;5035413;27;96724;-75
2023/09/20 03:51:50;;;;;;;6.40;2.22;;;;;;;15.65;59.13;100043.84;5027291;27;97439;-75
2023/09/20 03:54:16;;;;;;;9.70;2.78;;;;;;;15.60;59.32;100046.75;5028673;27;101081;-80
2023/09/20 03:56:42;;;;;;;5.40;1.83;;;;;;;15.47;59.87;100045.75;5053580;27;98157;-79
2023/09/20 03:59:10;;;;;;;6.85;4.80;;;;;;;15.37;59.59;100021.63;5047814;27;97180;-77
2023/09/20 04:01:36;;;;;;;5.32;2.28;;;;;;;15.47;59.70;100043.09;5058318;27;96800;-75
2023/09/20 04:04:03;;;;;;;4.32;1.70;;;;;;;15.31;60.15;100037.88;5051050;27;97446;-77
2023/09/20 04:06:29;;;;;;;2.80;1.73;;;;;;;15.42;59.99;100031.97;5044070;27;97877;-75
2023/09/20 04:08:55;;;;;;;4.63;2.20;;;;;;;15.50;59.89;100045.56;5054577;27;98241;-75
2023/09/20 04:11:21;;;;;;;10.25;2.70;;;;;;;15.36;60.27;100043.75;5047125;27;97019;-80
2023/09/20 04:13:47;;;;;;;3.92;1.90;;;;;;;15.19;60.66;100043.88;5055943;27;98150;-76
2023/09/20 04:16:12;;;;;;;7.30;4.60;;;;;;;15.18;61.34;100055.38;5025350;27;101099;-77
2023/09/20 04:18:38;;;;;;;5.82;3.03;;;;;;;15.06;61.11;100049.00;5054528;27;97106;-75
2023/09/20 04:21:04;;;;;;;6.65;2.00;;;;;;;15.11;61.46;100057.53;5025473;27;97507;-74
2023/09/20 04:23:32;;;;;;;5.78;2.10;;;;;;;15.11;61.23;100048.75;5047647;27;97911;-77
2023/09/20 04:25:57;;;;;;;5.65;2.75;;;;;;;15.12;61.43;100039.84;5048707;27;101220;-75
2023/09/20 04:28:23;;;;;;;4.00;1.92;;;;;;;14.96;61.59;100031.97;5037084;27;97301;-80
2023/09/20 04:30:49;;;;;;;12.80;3.42;;;;;;;15.03;61.85;100049.16;5039099;27;97105;-75
2023/09/20 04:33:15;;;;;;;6.82;2.08;;;;;;;15.03;62.05;100064.19;5044756;27;101597;-75
2023/09/20 04:35:44;;;;;;;4.72;1.90;;;;;;;14.92;62.25;100055.06;5034459;27;101299;-76
2023/09/20 04:38:16;;;;;;;8.27;2.05;;;;;;;14.82;62.89;100058.31;5050773;27;97556;-75
2023/09/20 04:40:41;;;;;;;3.60;1.92;;;;;;;14.84;62.83;100053.81;5037310;27;96962;-79
2023/09/20 04:43:07;;;;;;;4.15;1.90;;;;;;;14.90;62.61;100056.09;5041978;27;98084;-80
2023/09/20 04:45:33;;;;;;;3.22;1.77;;;;;;;14.99;62.54;100058.22;5053993;27;102028;-76
2023/09/20 04:47:58;;;;;;;3.30;2.05;;;;;;;14.83;62.44;100041.50;5021446;27;96745;-75
2023/09/20 04:50:25;;;;;;;6.50;3.00;;;;;;;15.16;62.15;100062.56;5050262;27;97628;-75
2023/09/20 04:52:50;;;;;;;7.93;2.15;;;;;;;15.28;61.95;100055.72;5042676;27;101698;-75
2023/09/20 04:55:16;;;;;;;9.18;2.80;;;;;;;15.37;61.73;100071.03;5019856;27;101117;-76
2023/09/20 04:57:47;;;;;;;7.97;2.28;;;;;;;15.45;61.39;100065.31;5033275;27;97380;-80
2023/09/20 05:00:16;;;;;;;6.22;2.20;;;;;;;15.55;61.06;100064.66;5046724;27;96884;-76
2023/09/20 05:02:45;;;;;;;9.50;2.30;;;;;;;15.59;60.92;100060.91;5052926;27;101491;-76
2023/09/20 05:05:11;;;;;;;4.68;2.03;;;;;;;15.56;61.09;100058.47;5035814;27;101397;-76
2023/09/20 05:07:37;;;;;;;5.63;2.10;;;;;;;15.58;61.14;100067.13;5049212;27;99257;-76
2023/09/20 05:10:03;;;;;;;6.05;2.42;;;;;;;15.46;61.51;100067.84;5053769;27;97137;-79
2023/09/20 05:12:30;;;;;;;6.03;2.22;;;;;;;15.22;61.53;100032.28;5019228;27;100870;-78
2023/09/20 05:14:56;;;;;;;5.78;2.15;;;;;;;15.31;61.92;100050.25;5018699;27;101507;-81
2023/09/20 05:17:21;;;;;;;6.00;2.33;;;;;;;15.36;61.73;100053.47;5023106;27;96916;-81
2023/09/20 05:19:47;;;;;;;8.07;2.28;;;;;;;15.61;61.40;100069.59;5051315;27;97055;-81
2023/09/20 05:22:12;;;;;;;4.70;1.90;;;;;;;15.67;60.84;100049.03;5018920;27;101234;-83
2023/09/20 05:24:38;;;;;;;6.55;2.30;;;;;;;15.76;60.62;100043.22;5035781;27;98022;-82
2023/09/20 05:27:04;;;;;;;11.98;4.03;;;;;;;16.07;60.72;100080.13;5048750;27;97097;-81
2023/09/20 05:29:30;;;;;;;4.53;1.90;;;;;;;16.17;60.23;100074.25;5035231;27;98420;-81
2023/09/20 05:31:56;;;;;;;6.47;2.47;;;;;;;16.21;60.22;100075.78;5036556;27;100766;-81
2023/09/20 05:34:21;;;;;;;5.35;2.60;;;;;;;16.40;59.79;100072.84;5052461;27;100936;-82
2023/09/20 05:36:51;;;;;;;5.30;2.15;;;;;;;16.65;59.10;100085.44;5046483;27;96856;-81
2023/09/20 05:39:18;;;;;;;5.70;1.75;;;;;;;16.92;58.28;100078.38;5043044;27;97422;-82
2023/09/20 05:41:44;;;;;;;10.73;2.33;;;;;;;17.00;58.32;100077.91;5026927;27;97431;-85
2023/09/20 05:44:10;;;;;;;10.02;2.40;;;;;;;17.25;57.94;100081.59;5046262;27;97612;-82
2023/09/20 05:46:36;;;;;;;10.93;2.42;;;;;;;17.23;57.66;100081.72;5023254;27;96906;-82
2023/09/20 05:49:02;;;;;;;9.90;2.20;;;;;;;17.48;57.06;100066.81;5052142;27;96965;-81
2023/09/20 05:51:28;;;;;;;4.70;1.90;;;;;;;17.75;56.79;100080.06;5028778;27;97962;-83
2023/09/20 05:53:54;;;;;;;9.68;2.38;;;;;;;18.01;56.60;100089.78;5034647;27;100745;-82
2023/09/20 05:56:19;;;;;;;6.18;2.50;;;;;;;18.11;55.91;100087.34;5035872;27;98111;-82
2023/09/20 05:58:45;;;;;;;7.85;2.10;;;;;;;18.08;55.41;100056.53;5051253;27;96920;-81
2023/09/20 06:01:12;;;;;;;6.80;2.33;;;;;;;18.68;54.57;100089.53;5015251;27;101245;-82
2023/09/20 06:03:39;;;;;;;6.03;2.35;;;;;;;19.11;53.86;100096.22;5033545;27;97654;-82
2023/09/20 06:06:07;;;;;;;10.77;2.20;;;;;;;19.38;52.88;100088.03;5035458;27;97190;-82
2023/09/20 06:08:38;;;;;;;7.47;2.20;;;;;;;19.84;52.07;100089.94;5053428;27;97419;-82
2023/09/20 06:11:04;;;;;;;6.28;1.67;;;;;;;20.42;50.76;100073.88;5027381;27;97694;-82
2023/09/20 06:13:33;;;;;;;5.75;1.90;;;;;;;21.32;48.99;100085.31;5052427;27;97859;-84
2023/09/20 06:15:58;;;;;;;10.93;2.17;;;;;;;21.92;47.49;100077.63;5034325;27;96873;-85
2023/09/20 06:18:25;;;;;;;4.20;2.10;;;;;;;23.07;45.01;100096.19;5035079;27;96732;-80
2023/09/20 06:20:51;;;;;;;8.45;2.17;;;;;;;24.41;42.58;100069.44;5052105;27;97404;-83
2023/09/20 06:23:19;;;;;;;13.30;2.60;;;;;;;26.17;39.43;100096.78;5048846;27;98822;-84
2023/09/20 06:25:47;;;;;;;4.60;2.20;;;;;;;27.99;36.52;100092.63;5053439;27;97562;-79
2023/09/20 06:28:15;;;;;;;13.18;2.35;;;;;;;28.97;34.80;100092.31;5051375;27;97511;-82
2023/09/20 06:30:44;;;;;;;12.57;2.33;;;;;;;28.93;34.49;100090.19;5017620;27;101098;-83
2023/09/20 06:33:11;;;;;;;5.00;2.30;;;;;;;29.06;34.05;100095.84;5050686;27;97355;-83
2023/09/20 06:35:40;;;;;;;8.48;2.40;;;;;;;28.98;34.52;100093.19;5028646;27;96834;-83
2023/09/20 06:38:07;;;;;;;12.52;2.70;;;;;;;31.05;31.73;100093.66;5029112;27;97414;-84
2023/09/20 06:40:38;;;;;;;11.07;2.47;;;;;;;30.85;32.06;100089.88;5030899;27;97587;-83
2023/09/20 06:43:07;;;;;;;9.23;3.10;;;;;;;31.25;31.24;100096.59;5052868;27;97816;-83
2023/09/20 06:45:34;;;;;;;8.18;2.65;;;;;;;30.92;31.65;100098.91;5045942;27;97016;-83
2023/09/20 06:48:02;;;;;;;8.27;2.50;;;;;;;32.44;29.61;100087.84;5030726;27;96957;-84
2023/09/20 06:50:28;;;;;;;7.38;2.17;;;;;;;35.09;27.38;100092.63;5044922;27;97760;-79
2023/09/20 06:52:55;;;;;;;8.80;2.33;;;;;;;36.21;25.36;100095.59;5024810;28;101052;-80
2023/09/20 06:55:20;;;;;;;5.88;2.95;;;;;;;35.67;25.50;100079.91;5013687;27;98192;-84
2023/09/20 06:57:47;;;;;;;14.60;2.47;;;;;;;36.81;24.54;100074.97;5048502;27;97349;-82
2023/09/20 07:00:25;;;;;;;12.90;2.70;;;;;;;36.64;24.52;100092.00;5032788;27;101785;-82
2023/09/20 07:02:55;;;;;;;9.50;2.50;;;;;;;37.82;23.77;100078.78;5036802;27;101271;-81
2023/09/20 07:05:23;;;;;;;6.57;2.53;;;;;;;37.02;23.93;100087.34;5033533;27;97098;-84
2023/09/20 07:07:49;;;;;;;4.90;1.83;;;;;;;35.80;25.29;100079.78;5041559;27;97108;-84
2023/09/20 07:10:17;;;;;;;7.80;2.72;;;;;;;36.91;24.37;100094.38;5021568;27;101316;-82
2023/09/20 07:12:44;;;;;;;8.82;3.47;;;;;;;38.73;22.48;100098.38;5049604;27;98250;-82
2023/09/20 07:15:15;;;;;;;5.78;2.63;;;;;;;36.69;24.44;100097.63;5046345;27;98217;-82
2023/09/20 07:17:42;;;;;;;4.95;2.05;;;;;;;39.60;22.09;100100.91;5031588;27;96941;-75
2023/09/20 07:20:14;;;;;;;4.93;2.65;;;;;;;41.27;20.77;100105.44;5045801;27;97526;-77
2023/09/20 07:22:42;;;;;;;4.63;2.50;;;;;;;40.74;21.14;100093.28;5040873;27;100765;-75
2023/09/20 07:25:08;;;;;;;3.05;2.05;;;;;;;40.23;21.41;100101.66;5042829;27;98520;-75
2023/09/20 07:27:33;;;;;;;7.60;2.30;;;;;;;41.89;20.21;100095.84;5046853;27;97218;-74
2023/09/20 07:30:05;;;;;;;8.07;1.88;;;;;;;43.58;19.18;100099.31;5052310;27;97572;-75
2023/09/20 07:32:31;;;;;;;3.83;1.85;;;;;;;42.96;19.02;100096.38;5055280;27;97422;-75
2023/09/20 07:34:59;;;;;;;6.07;1.75;;;;;;;42.32;18.72;100102.19;5052788;27;97282;-75
2023/09/20 07:37:25;;;;;;;6.30;2.10;;;;;;;43.16;18.43;100086.53;5050650;27;97245;-76
2023/09/20 07:39:51;;;;;;;5.63;1.60;;;;;;;45.31;17.46;100086.03;5051651;27;97888;-75
2023/09/20 07:42:17;;;;;;;8.38;2.20;;;;;;;45.13;16.97;100073.69;5054646;27;97735;-75
2023/09/20 07:44:43;;;;;;;5.35;1.80;;;;;;;44.57;17.05;100088.63;5048545;27;97438;-75
2023/09/20 07:47:11;;;;;;;3.83;2.55;;;;;;;46.00;16.27;100082.13;5051466;27;97365;-75
2023/09/20 07:49:36;;;;;;;3.47;2.08;;;;;;;47.46;15.67;100083.56;5047421;27;97480;-75
2023/09/20 07:52:04;;;;;;;3.45;1.95;;;;;;;46.92;15.04;100058.78;5046067;27;99211;-75
2023/09/20 07:54:29;;;;;;;8.80;4.78;;;;;;;47.78;14.82;100069.69;5047526;27;97352;-76
2023/09/20 07:56:55;;;;;;;6.25;2.13;;;;;;;43.13;17.49;100076.00;5049956;27;96977;-75
2023/09/20 07:59:26;;;;;;;2.13;1.92;;;;;;;44.04;17.22;100066.94;5028591;27;99844;-76
2023/09/20 08:01:53;;;;;;;4.22;2.53;;;;;;;42.55;17.97;100078.84;5054032;27;98085;-75
2023/09/20 08:04:19;;;;;;;3.38;2.00;;;;;;;45.25;16.41;100043.69;5053027;27;97301;-76
2023/09/20 08:06:44;;;;;;;3.17;1.80;;;;;;;46.25;15.89;100067.13;5052706;27;96782;-76
2023/09/20 08:09:10;;;;;;;4.38;2.30;;;;;;;47.79;15.23;100070.50;5044197;27;97600;-76
2023/09/20 08:11:37;;;;;;;5.60;1.90;;;;;;;45.71;15.72;100072.97;5045877;27;101379;-76
2023/09/20 08:14:03;;;;;;;2.67;2.10;;;;;;;45.72;15.54;100069.91;5048698;27;96783;-84
2023/09/20 08:16:33;;;;;;;4.07;1.95;;;;;;;46.63;14.94;100072.78;5031316;27;97251;-87
2023/09/20 08:19:21;;;;;;;4.75;2.65;;;;;;;46.61;14.74;100055.63;5034671;27;102004;-84
2023/09/20 08:21:47;;;;;;;4.80;3.10;;;;;;;48.47;13.70;100064.16;5034256;27;98272;-77
2023/09/20 09:00:24;;;;;;;10.70;4.85;;;;;;;54.48;10.49;100016.25;5067517;27;96884;-80
2023/09/20 09:02:57;;;;;;;3.67;3.03;;;;;;;53.43;10.73;100028.00;5053342;27;97967;-81
2023/09/20 09:05:25;;;;;;;11.30;6.50;;;;;;;54.83;10.45;100024.13;5052592;27;98187;-83
2023/09/20 09:07:51;;;;;;;11.65;5.90;;;;;;;55.19;10.15;100027.94;5043640;27;97223;-79
2023/09/20 09:10:18;;;;;;;9.80;8.15;;;;;;;55.78;10.42;100025.13;5048212;27;96840;-80
2023/09/20 09:12:44;;;;;;;6.03;4.72;;;;;;;55.22;10.31;100007.53;5051064;27;97463;-82
2023/09/20 09:15:11;;;;;;;12.38;9.32;;;;;;;54.48;10.22;100016.25;5044497;27;101533;-80
2023/09/20 09:17:41;;;;;;;4.13;3.83;;;;;;;54.31;10.29;100010.91;5048532;27;96768;-81
2023/09/20 09:20:10;;;;;;;6.05;4.93;;;;;;;55.16;9.92;100016.25;5050143;27;97286;-79
2023/09/20 09:22:42;;;;;;;4.50;4.07;;;;;;;54.41;9.82;99999.19;5047707;27;101723;-79
2023/09/20 09:25:12;;;;;;;4.93;4.47;;;;;;;55.15;9.74;100008.97;5029331;27;97530;-81
2023/09/20 09:27:39;;;;;;;8.70;5.43;;;;;;;55.15;9.28;100003.38;5032255;27;97277;-80
2023/09/20 09:30:09;;;;;;;9.15;3.75;;;;;;;54.98;9.51;99998.06;5015473;28;97602;-80
2023/09/20 09:32:36;;;;;;;3.95;3.65;;;;;;;54.10;10.06;99982.97;5049013;27;99324;-80
2023/09/20 09:35:05;;;;;;;;;;;;;;;52.91;10.62;100004.09;5034813;27;97599;-79
2023/09/20 09:37:32;;;;;;;3.63;3.33;;;;;;;53.50;10.74;99990.97;5048100;27;97192;-80
2023/09/20 09:40:02;;;;;;;4.00;3.70;;;;;;;54.63;9.98;99990.25;5027075;27;96939;-80
2023/09/20 09:42:30;;;;;;;4.97;4.20;;;;;;;54.91;10.00;99981.00;5043331;27;98790;-80
2023/09/20 09:44:57;;;;;;;3.63;3.33;;;;;;;54.78;11.05;99994.28;5046718;27;98522;-79
2023/09/20 09:47:24;;;;;;;4.47;3.47;;;;;;;54.14;10.13;99990.31;5048116;27;98430;-79
2023/09/20 09:49:51;;;;;;;11.32;6.13;;;;;;;53.51;10.24;99995.44;5029445;27;97369;-83
2023/09/20 09:52:18;;;;;;;7.32;4.70;;;;;;;52.90;10.63;99985.66;5049949;27;101150;-79
2023/09/20 09:54:46;;;;;;;9.18;3.92;;;;;;;51.40;11.05;99990.78;5048797;27;97900;-79
2023/09/20 09:57:12;;;;;;;5.75;3.65;;;;;;;50.05;12.72;99980.56;5046890;27;97273;-78
2023/09/20 09:59:39;;;;;;;3.90;3.40;;;;;;;48.88;13.18;99996.47;5049168;27;97392;-80
2023/09/20 10:02:17;;;;;;;8.15;4.00;;;;;;;48.05;13.96;99992.94;5016520;27;101107;-82
2023/09/20 10:04:43;;;;;;;;;;;;;;;45.61;16.09;99983.25;5046729;27;97872;-79
2023/09/20 10:07:16;;;;;;;6.57;1.93;;;;;;;44.09;16.83;99983.16;5027523;27;96951;-79
2023/09/20 10:09:43;;;;;;;4.57;2.25;;;;;;;42.46;18.03;99981.19;5046548;27;97423;-80
2023/09/20 10:12:08;;;;;;;7.15;1.98;;;;;;;40.98;19.48;99993.94;5051782;27;97975;-77
2023/09/20 10:14:37;;;;;;;21.20;19.60;;;;;;;39.56;20.64;99989.91;5045720;27;97318;-78
2023/09/20 10:17:06;;;;;;;7.95;3.30;;;;;;;38.62;20.86;99987.66;5048714;27;97156;-77
2023/09/20 10:19:31;;;;;;;3.78;1.67;;;;;;;37.75;20.96;99991.25;5049088;27;97191;-74
2023/09/20 10:22:09;;;;;;;2.83;1.42;;;;;;;37.18;21.70;99988.22;5046385;27;98822;-74
2023/09/20 10:24:50;;;;;;;13.43;12.50;;;;;;;35.82;22.67;99984.84;5048681;27;98331;-74
2023/09/20 10:27:22;;;;;;;2.88;2.65;;;;;;;34.70;23.79;99999.09;5044830;27;98110;-74
2023/09/20 10:30:10;;;;;;;19.85;18.65;;;;;;;34.49;23.83;99983.00;5066506;27;97310;-75
2023/09/20 10:32:48;;;;;;;6.40;1.70;;;;;;;34.21;24.25;99992.34;5035914;27;97646;-74
2023/09/20 10:35:19;;;;;;;2.22;1.60;;;;;;;33.92;24.89;99990.06;5046252;27;97440;-76
2023/09/20 10:38:01;;;;;;;6.47;1.75;;;;;;;33.52;26.26;99984.69;5047737;27;97102;-75
2023/09/20 10:40:59;;;;;;;4.40;1.30;;;;;;;33.14;26.02;99991.56;5045509;27;96887;-74
2023/09/20 10:43:34;;;;;;;5.53;2.10;;;;;;;33.12;26.55;99990.91;5044068;27;97985;-75
2023/09/20 10:46:05;;;;;;;2.88;1.50;;;;;;;32.79;26.10;99960.94;5049526;27;98098;-75
2023/09/20 10:48:32;;;;;;;5.65;2.55;;;;;;;32.77;26.68;99968.44;5042623;27;96849;-74
2023/09/20 10:50:58;;;;;;;2.78;1.48;;;;;;;32.74;27.50;99973.47;5034320;27;97108;-74
2023/09/20 10:53:47;;;;;;;3.75;1.67;;;;;;;32.51;27.26;99968.38;5048278;27;97699;-76
2023/09/20 10:56:53;;;;;;;7.72;2.47;;;;;;;31.84;27.55;99972.59;5042495;27;97327;-74
2023/09/20 10:59:28;;;;;;;2.80;1.27;;;;;;;31.61;28.37;99965.53;5041397;27;97169;-74
2023/09/20 11:02:09;;;;;;;13.48;12.35;;;;;;;31.39;28.69;99948.50;5047679;27;96646;-77
2023/09/20 11:04:36;;;;;;;15.85;14.75;;;;;;;31.10;28.87;99949.47;5054502;27;98012;-79
2023/09/20 11:07:02;;;;;;;12.88;12.07;;;;;;;30.67;29.17;99965.66;5051384;27;99489;-73
2023/09/20 11:09:33;;;;;;;18.45;16.60;;;;;;;30.53;29.62;99953.00;5033345;27;97334;-76
2023/09/20 11:12:05;;;;;;;2.67;1.20;;;;;;;30.51;28.93;99953.19;5067111;27;97295;-77
2023/09/20 11:14:36;;;;;;;9.73;9.00;;;;;;;29.99;29.15;99946.03;5041629;27;97993;-76
2023/09/20 11:17:02;;;;;;;6.72;6.05;;;;;;;29.86;29.99;99957.53;5048044;27;99048;-77
2023/09/20 11:19:28;;;;;;;3.28;1.20;;;;;;;30.05;30.63;99949.88;5050221;27;97291;-77
2023/09/20 11:21:55;;;;;;;6.72;1.90;;;;;;;29.77;30.48;99947.81;5046429;27;96961;-75
2023/09/20 11:24:20;;;;;;;2.65;1.60;;;;;;;29.69;31.36;99958.72;5041760;27;97530;-76
2023/09/20 11:26:48;;;;;;;4.57;1.60;;;;;;;29.60;31.19;99941.72;5049495;27;97684;-75
2023/09/20 11:29:16;;;;;;;9.80;5.90;;;;;;;29.43;31.17;99941.03;5049348;27;97105;-75
2023/09/20 11:31:45;;;;;;;6.32;3.20;;;;;;;29.06;31.31;99942.72;5052446;27;98415;-75
2023/09/20 11:34:12;;;;;;;9.80;1.48;;;;;;;28.93;32.37;99944.31;5040618;27;98262;-77
2023/09/20 11:36:40;;;;;;;4.53;1.50;;;;;;;29.09;32.00;99947.75;5022093;28;98103;-75
2023/09/20 11:39:06;;;;;;;2.45;1.55;;;;;;;28.81;31.39;99933.09;5030156;27;97342;-75
2023/09/20 11:41:32;;;;;;;2.45;1.55;;;;;;;28.95;32.25;99947.69;5048173;27;97327;-75
2023/09/20 11:44:00;;;;;;;7.78;4.55;;;;;;;29.02;32.58;99938.69;5027301;27;99815;-77
2023/09/20 11:46:30;;;;;;;5.80;5.07;;;;;;;29.00;32.60;99948.81;5032038;27;101185;-79
2023/09/20 11:49:00;;;;;;;5.15;2.28;;;;;;;28.96;32.45;99925.03;5035145;27;99068;-77
2023/09/20 11:51:28;;;;;;;3.33;3.08;;;;;;;29.03;31.91;99932.28;5047825;27;97421;-75
2023/09/20 11:53:55;;;;;;;5.28;4.88;;;;;;;28.87;31.64;99935.06;5048939;27;97355;-77
2023/09/20 11:56:30;;;;;;;5.72;3.05;;;;;;;28.09;32.13;99935.97;5045756;27;98510;-75
2023/09/20 11:59:05;;;;;;;7.82;5.53;;;;;;;28.27;33.27;99939.25;5028063;28;97841;-76
2023/09/20 12:01:32;;;;;;;8.73;7.78;;;;;;;28.34;33.25;99931.31;5027677;27;97602;-78
2023/09/20 12:03:57;;;;;;;7.70;7.10;;;;;;;28.30;32.98;99922.72;5032621;27;97538;-78